sensor_id;sensor_type;location;lat;lon;timestamp;pressure;altitude;pressure_sealevel;temperature;humidity
51530;BME280;37613;51.788;21.582;2022-08-30T00:02:02;100315.85;;;13.68;74.69
51530;BME280;37613;51.788;21.582;2022-08-30T00:06:06;100318.77;;;13.68;74.71
51530;BME280;37613;51.788;21.582;2022-08-30T00:10:09;100318.61;;;13.68;75.27
51530;BME280;37613;51.788;21.582;2022-08-30T00:14:14;100318.22;;;13.70;75.43
51530;BME280;37613;51.788;21.582;2022-08-30T00:18:27;100321.45;;;13.72;75.26
51530;BME280;37613;51.788;21.582;2022-08-30T00:22:34;100322.54;;;13.74;75.46
51530;BME280;37613;51.788;21.582;2022-08-30T00:26:45;100323.68;;;13.77;75.55
51530;BME280;37613;51.788;21.582;2022-08-30T00:30:47;100318.91;;;13.77;75.52
51530;BME280;37613;51.788;21.582;2022-08-30T00:34:52;100325.45;;;13.75;75.60
51530;BME280;37613;51.788;21.582;2022-08-30T00:38:59;100322.69;;;13.74;75.65
51530;BME280;37613;51.788;21.582;2022-08-30T00:43:06;100319.70;;;13.72;75.64
51530;BME280;37613;51.788;21.582;2022-08-30T00:47:19;100320.05;;;13.69;75.58
51530;BME280;37613;51.788;21.582;2022-08-30T00:51:21;100324.54;;;13.64;75.70
51530;BME280;37613;51.788;21.582;2022-08-30T00:55:32;100330.61;;;13.61;75.78
51530;BME280;37613;51.788;21.582;2022-08-30T00:59:38;100329.14;;;13.58;76.19
51530;BME280;37613;51.788;21.582;2022-08-30T01:03:45;100328.23;;;13.55;75.89
51530;BME280;37613;51.788;21.582;2022-08-30T01:07:57;100327.04;;;13.53;75.70
51530;BME280;37613;51.788;21.582;2022-08-30T01:12:02;100326.45;;;13.49;75.69
51530;BME280;37613;51.788;21.582;2022-08-30T01:16:07;100325.23;;;13.44;75.54
51530;BME280;37613;51.788;21.582;2022-08-30T01:20:25;100324.73;;;13.38;75.56
51530;BME280;37613;51.788;21.582;2022-08-30T01:24:33;100322.88;;;13.32;75.74
51530;BME280;37613;51.788;21.582;2022-08-30T01:28:43;100320.15;;;13.27;75.63
51530;BME280;37613;51.788;21.582;2022-08-30T01:32:56;100324.41;;;13.21;75.62
51530;BME280;37613;51.788;21.582;2022-08-30T01:37:03;100329.77;;;13.14;75.62
51530;BME280;37613;51.788;21.582;2022-08-30T01:41:15;100325.00;;;13.06;75.56
51530;BME280;37613;51.788;21.582;2022-08-30T01:45:28;100326.84;;;13.02;75.60
51530;BME280;37613;51.788;21.582;2022-08-30T01:49:35;100334.49;;;12.97;75.67
51530;BME280;37613;51.788;21.582;2022-08-30T01:53:43;100335.73;;;12.93;75.80
51530;BME280;37613;51.788;21.582;2022-08-30T01:57:49;100336.47;;;12.89;75.64
51530;BME280;37613;51.788;21.582;2022-08-30T02:01:56;100332.30;;;12.84;75.89
51530;BME280;37613;51.788;21.582;2022-08-30T02:06:13;100329.16;;;12.79;75.83
51530;BME280;37613;51.788;21.582;2022-08-30T02:10:23;100328.38;;;12.75;75.90
51530;BME280;37613;51.788;21.582;2022-08-30T02:14:31;100328.98;;;12.72;75.92
51530;BME280;37613;51.788;21.582;2022-08-30T02:18:40;100328.36;;;12.68;76.05
51530;BME280;37613;51.788;21.582;2022-08-30T02:22:45;100325.69;;;12.65;76.07
51530;BME280;37613;51.788;21.582;2022-08-30T02:26:56;100325.24;;;12.62;75.91
51530;BME280;37613;51.788;21.582;2022-08-30T02:31:08;100326.12;;;12.59;75.96
51530;BME280;37613;51.788;21.582;2022-08-30T02:35:26;100331.46;;;12.56;76.10
51530;BME280;37613;51.788;21.582;2022-08-30T02:39:44;100332.20;;;12.51;76.18
51530;BME280;37613;51.788;21.582;2022-08-30T02:43:51;100334.12;;;12.49;76.20
51530;BME280;37613;51.788;21.582;2022-08-30T02:47:59;100334.22;;;12.46;76.20
51530;BME280;37613;51.788;21.582;2022-08-30T02:52:23;100334.14;;;12.44;76.11
51530;BME280;37613;51.788;21.582;2022-08-30T03:00:47;100341.86;;;12.40;76.34
51530;BME280;37613;51.788;21.582;2022-08-30T03:04:55;100347.02;;;12.39;76.56
51530;BME280;37613;51.788;21.582;2022-08-30T03:09:18;100347.02;;;12.40;76.70
51530;BME280;37613;51.788;21.582;2022-08-30T03:13:23;100352.79;;;12.41;76.64
51530;BME280;37613;51.788;21.582;2022-08-30T03:22:36;100353.84;;;12.38;76.71
51530;BME280;37613;51.788;21.582;2022-08-30T03:26:46;100355.67;;;12.35;76.73
51530;BME280;37613;51.788;21.582;2022-08-30T03:35:15;100354.98;;;12.29;76.89
51530;BME280;37613;51.788;21.582;2022-08-30T03:39:30;100355.16;;;12.25;77.16
51530;BME280;37613;51.788;21.582;2022-08-30T03:43:39;100356.61;;;12.23;77.55
51530;BME280;37613;51.788;21.582;2022-08-30T03:47:52;100362.08;;;12.23;77.51
51530;BME280;37613;51.788;21.582;2022-08-30T03:52:07;100360.39;;;12.26;77.87
51530;BME280;37613;51.788;21.582;2022-08-30T03:56:14;100361.09;;;12.29;77.79
51530;BME280;37613;51.788;21.582;2022-08-30T04:00:19;100354.35;;;12.30;77.85
51530;BME280;37613;51.788;21.582;2022-08-30T04:04:31;100360.23;;;12.43;77.87
51530;BME280;37613;51.788;21.582;2022-08-30T04:08:38;100363.91;;;12.50;78.01
51530;BME280;37613;51.788;21.582;2022-08-30T04:12:50;100365.62;;;12.58;78.13
51530;BME280;37613;51.788;21.582;2022-08-30T04:17:04;100364.79;;;12.65;78.20
51530;BME280;37613;51.788;21.582;2022-08-30T04:21:10;100361.02;;;12.73;78.54
51530;BME280;37613;51.788;21.582;2022-08-30T04:25:27;100360.77;;;12.85;78.92
51530;BME280;37613;51.788;21.582;2022-08-30T04:29:32;100365.13;;;12.98;78.91
51530;BME280;37613;51.788;21.582;2022-08-30T04:33:40;100359.45;;;13.11;78.87
51530;BME280;37613;51.788;21.582;2022-08-30T04:37:54;100357.62;;;13.36;79.36
51530;BME280;37613;51.788;21.582;2022-08-30T04:41:56;100364.09;;;14.32;80.59
51530;BME280;37613;51.788;21.582;2022-08-30T04:46:03;100367.48;;;15.65;80.94
51530;BME280;37613;51.788;21.582;2022-08-30T04:50:13;100367.56;;;16.04;79.36
51530;BME280;37613;51.788;21.582;2022-08-30T04:54:20;100367.51;;;15.86;78.76
51530;BME280;37613;51.788;21.582;2022-08-30T04:58:25;100368.99;;;15.56;78.82
51530;BME280;37613;51.788;21.582;2022-08-30T05:02:28;100355.84;;;16.18;79.16
51530;BME280;37613;51.788;21.582;2022-08-30T05:06:34;100365.61;;;18.09;79.47
51530;BME280;37613;51.788;21.582;2022-08-30T05:10:39;100377.50;;;19.15;78.12
51530;BME280;37613;51.788;21.582;2022-08-30T05:14:45;100378.66;;;19.66;76.13
51530;BME280;37613;51.788;21.582;2022-08-30T05:18:47;100380.34;;;20.48;75.25
51530;BME280;37613;51.788;21.582;2022-08-30T05:22:50;100381.13;;;21.61;74.53
51530;BME280;37613;51.788;21.582;2022-08-30T05:26:52;100384.58;;;22.66;73.62
51530;BME280;37613;51.788;21.582;2022-08-30T05:31:13;100387.94;;;23.29;71.62
51530;BME280;37613;51.788;21.582;2022-08-30T05:35:16;100392.55;;;24.00;70.67
51530;BME280;37613;51.788;21.582;2022-08-30T05:39:18;100395.94;;;24.20;67.71
51530;BME280;37613;51.788;21.582;2022-08-30T05:43:23;100397.12;;;23.84;68.41
51530;BME280;37613;51.788;21.582;2022-08-30T05:47:25;100393.63;;;23.25;66.66
51530;BME280;37613;51.788;21.582;2022-08-30T05:51:28;100390.58;;;22.88;68.17
51530;BME280;37613;51.788;21.582;2022-08-30T05:55:30;100398.59;;;22.61;68.35
51530;BME280;37613;51.788;21.582;2022-08-30T05:59:32;100394.94;;;22.01;67.78
51530;BME280;37613;51.788;21.582;2022-08-30T06:03:34;100400.92;;;21.36;67.50
51530;BME280;37613;51.788;21.582;2022-08-30T06:07:36;100398.21;;;20.69;67.69
51530;BME280;37613;51.788;21.582;2022-08-30T06:11:38;100398.66;;;20.33;68.33
51530;BME280;37613;51.788;21.582;2022-08-30T06:15:40;100400.05;;;20.14;68.36
51530;BME280;37613;51.788;21.582;2022-08-30T06:19:45;100402.90;;;19.84;68.90
51530;BME280;37613;51.788;21.582;2022-08-30T06:23:47;100404.46;;;19.53;69.29
51530;BME280;37613;51.788;21.582;2022-08-30T06:27:49;100408.98;;;19.19;70.10
51530;BME280;37613;51.788;21.582;2022-08-30T06:31:51;100405.92;;;18.87;71.50
51530;BME280;37613;51.788;21.582;2022-08-30T06:35:53;100402.20;;;18.76;71.63
51530;BME280;37613;51.788;21.582;2022-08-30T06:39:55;100408.30;;;19.03;71.96
51530;BME280;37613;51.788;21.582;2022-08-30T06:43:59;100414.86;;;19.11;72.31
51530;BME280;37613;51.788;21.582;2022-08-30T06:48:01;100425.91;;;19.06;72.72
51530;BME280;37613;51.788;21.582;2022-08-30T06:52:03;100428.20;;;18.94;74.47
51530;BME280;37613;51.788;21.582;2022-08-30T06:56:09;100426.97;;;18.72;75.47
51530;BME280;37613;51.788;21.582;2022-08-30T07:00:13;100429.44;;;18.60;74.27
51530;BME280;37613;51.788;21.582;2022-08-30T07:04:18;100431.27;;;18.52;74.28
51530;BME280;37613;51.788;21.582;2022-08-30T07:08:20;100432.36;;;18.37;75.20
51530;BME280;37613;51.788;21.582;2022-08-30T07:12:23;100437.06;;;18.62;76.74
51530;BME280;37613;51.788;21.582;2022-08-30T07:16:26;100442.98;;;19.04;76.33
51530;BME280;37613;51.788;21.582;2022-08-30T07:20:28;100447.73;;;19.08;75.17
51530;BME280;37613;51.788;21.582;2022-08-30T07:24:32;100450.17;;;18.91;75.12
51530;BME280;37613;51.788;21.582;2022-08-30T07:28:35;100452.20;;;18.71;75.48
51530;BME280;37613;51.788;21.582;2022-08-30T07:32:37;100461.04;;;18.38;76.67
51530;BME280;37613;51.788;21.582;2022-08-30T07:36:39;100462.27;;;18.18;76.72
51530;BME280;37613;51.788;21.582;2022-08-30T07:40:41;100463.61;;;18.09;77.63
51530;BME280;37613;51.788;21.582;2022-08-30T07:44:43;100464.52;;;18.05;78.07
51530;BME280;37613;51.788;21.582;2022-08-30T07:48:45;100464.13;;;18.23;78.55
51530;BME280;37613;51.788;21.582;2022-08-30T07:52:46;100470.93;;;18.68;78.39
51530;BME280;37613;51.788;21.582;2022-08-30T07:56:48;100471.58;;;19.06;77.57
51530;BME280;37613;51.788;21.582;2022-08-30T08:00:51;100479.58;;;19.37;77.00
51530;BME280;37613;51.788;21.582;2022-08-30T08:04:53;100488.25;;;19.49;75.58
51530;BME280;37613;51.788;21.582;2022-08-30T08:08:55;100491.11;;;19.34;75.13
51530;BME280;37613;51.788;21.582;2022-08-30T08:13:03;100490.12;;;19.25;74.94
51530;BME280;37613;51.788;21.582;2022-08-30T08:17:05;100492.10;;;19.49;74.70
51530;BME280;37613;51.788;21.582;2022-08-30T08:21:07;100489.68;;;19.80;73.33
51530;BME280;37613;51.788;21.582;2022-08-30T08:25:11;100488.04;;;19.81;72.59
51530;BME280;37613;51.788;21.582;2022-08-30T08:29:16;100493.83;;;19.97;72.38
51530;BME280;37613;51.788;21.582;2022-08-30T08:33:18;100490.81;;;20.10;71.07
51530;BME280;37613;51.788;21.582;2022-08-30T08:37:26;100486.73;;;20.25;70.92
51530;BME280;37613;51.788;21.582;2022-08-30T08:41:49;100492.22;;;20.52;70.99
51530;BME280;37613;51.788;21.582;2022-08-30T08:50:04;100504.82;;;20.43;69.05
51530;BME280;37613;51.788;21.582;2022-08-30T08:54:14;100505.24;;;20.17;69.06
51530;BME280;37613;51.788;21.582;2022-08-30T08:58:26;100503.59;;;19.86;69.66
51530;BME280;37613;51.788;21.582;2022-08-30T09:02:32;100505.21;;;19.85;70.64
51530;BME280;37613;51.788;21.582;2022-08-30T09:06:46;100504.48;;;20.00;69.76
51530;BME280;37613;51.788;21.582;2022-08-30T09:14:52;100509.23;;;20.13;69.91
51530;BME280;37613;51.788;21.582;2022-08-30T09:18:55;100501.43;;;20.46;69.98
51530;BME280;37613;51.788;21.582;2022-08-30T09:23:09;100502.42;;;20.72;69.20
51530;BME280;37613;51.788;21.582;2022-08-30T09:27:16;100498.19;;;20.80;67.52
51530;BME280;37613;51.788;21.582;2022-08-30T09:31:23;100501.69;;;20.76;68.18
51530;BME280;37613;51.788;21.582;2022-08-30T09:35:35;100503.50;;;20.86;67.93
51530;BME280;37613;51.788;21.582;2022-08-30T09:39:37;100503.92;;;20.94;67.82
51530;BME280;37613;51.788;21.582;2022-08-30T09:43:46;100498.62;;;21.08;68.11
51530;BME280;37613;51.788;21.582;2022-08-30T09:52:36;100492.02;;;21.65;66.25
51530;BME280;37613;51.788;21.582;2022-08-30T10:00:54;100486.19;;;21.55;66.05
51530;BME280;37613;51.788;21.582;2022-08-30T10:05:00;100491.43;;;21.62;65.16
51530;BME280;37613;51.788;21.582;2022-08-30T10:17:35;100485.55;;;21.70;64.47
51530;BME280;37613;51.788;21.582;2022-08-30T10:21:44;100484.75;;;21.55;64.23
51530;BME280;37613;51.788;21.582;2022-08-30T10:25:52;100486.54;;;21.38;64.74
51530;BME280;37613;51.788;21.582;2022-08-30T10:29:59;100489.09;;;21.18;64.82
51530;BME280;37613;51.788;21.582;2022-08-30T10:34:04;100494.55;;;20.99;65.08
51530;BME280;37613;51.788;21.582;2022-08-30T10:42:21;100505.90;;;20.86;64.72
51530;BME280;37613;51.788;21.582;2022-08-30T10:50:31;100502.59;;;20.84;64.85
51530;BME280;37613;51.788;21.582;2022-08-30T10:58:52;100510.70;;;20.89;64.78
51530;BME280;37613;51.788;21.582;2022-08-30T11:11:31;100512.17;;;20.90;64.95
51530;BME280;37613;51.788;21.582;2022-08-30T11:15:50;100508.41;;;20.87;65.02
51530;BME280;37613;51.788;21.582;2022-08-30T11:19:59;100512.27;;;20.83;65.20
51530;BME280;37613;51.788;21.582;2022-08-30T11:24:06;100514.80;;;20.91;65.35
51530;BME280;37613;51.788;21.582;2022-08-30T11:28:11;100507.50;;;20.93;65.70
51530;BME280;37613;51.788;21.582;2022-08-30T11:36:59;100501.31;;;21.07;65.58
51530;BME280;37613;51.788;21.582;2022-08-30T11:41:09;100508.98;;;21.17;65.33
51530;BME280;37613;51.788;21.582;2022-08-30T11:53:51;100504.42;;;21.24;64.53
51530;BME280;37613;51.788;21.582;2022-08-30T12:06:44;100504.10;;;21.08;64.98
51530;BME280;37613;51.788;21.582;2022-08-30T12:10:54;100503.58;;;21.09;64.46
51530;BME280;37613;51.788;21.582;2022-08-30T12:14:59;100498.17;;;21.07;64.41
51530;BME280;37613;51.788;21.582;2022-08-30T12:19:10;100495.73;;;21.00;64.21
51530;BME280;37613;51.788;21.582;2022-08-30T12:23:20;100496.89;;;20.95;64.44
51530;BME280;37613;51.788;21.582;2022-08-30T12:27:26;100491.66;;;20.91;64.58
51530;BME280;37613;51.788;21.582;2022-08-30T12:31:28;100489.38;;;20.90;64.55
51530;BME280;37613;51.788;21.582;2022-08-30T12:35:30;100488.53;;;20.95;64.81
51530;BME280;37613;51.788;21.582;2022-08-30T12:39:35;100482.73;;;21.00;64.90
51530;BME280;37613;51.788;21.582;2022-08-30T12:43:38;100480.16;;;20.97;65.02
51530;BME280;37613;51.788;21.582;2022-08-30T12:48:03;100478.09;;;20.91;64.84
51530;BME280;37613;51.788;21.582;2022-08-30T12:56:17;100469.05;;;20.94;65.65
51530;BME280;37613;51.788;21.582;2022-08-30T13:00:32;100472.90;;;21.02;65.33
51530;BME280;37613;51.788;21.582;2022-08-30T13:04:35;100468.67;;;21.10;65.10
51530;BME280;37613;51.788;21.582;2022-08-30T13:12:56;100461.36;;;21.24;65.16
51530;BME280;37613;51.788;21.582;2022-08-30T13:17:06;100465.27;;;21.29;65.19
51530;BME280;37613;51.788;21.582;2022-08-30T13:25:29;100462.83;;;21.11;65.04
51530;BME280;37613;51.788;21.582;2022-08-30T13:29:34;100459.96;;;21.06;65.23
51530;BME280;37613;51.788;21.582;2022-08-30T13:33:38;100459.63;;;21.03;65.05
51530;BME280;37613;51.788;21.582;2022-08-30T13:37:40;100450.09;;;20.98;65.22
51530;BME280;37613;51.788;21.582;2022-08-30T13:41:43;100449.64;;;20.95;65.23
51530;BME280;37613;51.788;21.582;2022-08-30T13:45:44;100451.89;;;20.93;65.21
51530;BME280;37613;51.788;21.582;2022-08-30T13:49:46;100448.73;;;20.92;65.27
51530;BME280;37613;51.788;21.582;2022-08-30T13:53:49;100449.05;;;20.90;65.60
51530;BME280;37613;51.788;21.582;2022-08-30T13:57:51;100449.35;;;20.95;65.43
51530;BME280;37613;51.788;21.582;2022-08-30T14:01:53;100444.91;;;21.07;65.78
51530;BME280;37613;51.788;21.582;2022-08-30T14:05:57;100448.52;;;21.18;65.40
51530;BME280;37613;51.788;21.582;2022-08-30T14:10:01;100442.35;;;21.28;65.28
51530;BME280;37613;51.788;21.582;2022-08-30T14:14:03;100441.98;;;21.35;64.95
51530;BME280;37613;51.788;21.582;2022-08-30T14:18:05;100443.92;;;21.32;64.60
51530;BME280;37613;51.788;21.582;2022-08-30T14:22:07;100438.56;;;21.28;64.57
51530;BME280;37613;51.788;21.582;2022-08-30T14:26:11;100437.30;;;21.28;64.57
51530;BME280;37613;51.788;21.582;2022-08-30T14:30:14;100428.11;;;21.30;64.83
51530;BME280;37613;51.788;21.582;2022-08-30T14:34:16;100428.16;;;21.36;64.64
51530;BME280;37613;51.788;21.582;2022-08-30T14:38:18;100429.59;;;21.38;64.75
51530;BME280;37613;51.788;21.582;2022-08-30T14:42:20;100430.27;;;21.32;64.25
51530;BME280;37613;51.788;21.582;2022-08-30T14:46:22;100429.86;;;21.18;63.58
51530;BME280;37613;51.788;21.582;2022-08-30T14:50:28;100428.71;;;20.96;63.22
51530;BME280;37613;51.788;21.582;2022-08-30T14:54:30;100428.86;;;20.95;63.66
51530;BME280;37613;51.788;21.582;2022-08-30T14:58:36;100433.17;;;20.97;63.57
51530;BME280;37613;51.788;21.582;2022-08-30T15:02:38;100434.25;;;20.86;63.52
51530;BME280;37613;51.788;21.582;2022-08-30T15:06:44;100430.55;;;20.78;63.67
51530;BME280;37613;51.788;21.582;2022-08-30T15:10:46;100419.91;;;20.68;63.68
51530;BME280;37613;51.788;21.582;2022-08-30T15:14:49;100427.04;;;20.69;63.89
51530;BME280;37613;51.788;21.582;2022-08-30T15:18:51;100431.64;;;20.64;63.91
51530;BME280;37613;51.788;21.582;2022-08-30T15:22:54;100428.95;;;20.59;63.83
51530;BME280;37613;51.788;21.582;2022-08-30T15:26:56;100425.58;;;20.46;63.68
51530;BME280;37613;51.788;21.582;2022-08-30T15:30:59;100428.45;;;20.39;63.62
51530;BME280;37613;51.788;21.582;2022-08-30T15:35:03;100424.58;;;20.34;63.67
51530;BME280;37613;51.788;21.582;2022-08-30T15:39:06;100422.02;;;20.33;63.69
51530;BME280;37613;51.788;21.582;2022-08-30T15:43:08;100415.85;;;20.28;63.68
51530;BME280;37613;51.788;21.582;2022-08-30T15:47:10;100413.11;;;20.20;63.88
51530;BME280;37613;51.788;21.582;2022-08-30T15:51:13;100413.93;;;20.13;64.12
51530;BME280;37613;51.788;21.582;2022-08-30T15:55:15;100414.65;;;20.08;64.20
51530;BME280;37613;51.788;21.582;2022-08-30T15:59:17;100414.59;;;20.05;64.37
51530;BME280;37613;51.788;21.582;2022-08-30T16:03:19;100415.20;;;20.00;64.37
51530;BME280;37613;51.788;21.582;2022-08-30T16:07:21;100409.34;;;19.89;64.43
51530;BME280;37613;51.788;21.582;2022-08-30T16:11:23;100409.41;;;19.77;64.38
51530;BME280;37613;51.788;21.582;2022-08-30T16:15:29;100406.33;;;19.69;64.49
51530;BME280;37613;51.788;21.582;2022-08-30T16:19:31;100407.06;;;19.62;64.62
51530;BME280;37613;51.788;21.582;2022-08-30T16:23:37;100415.00;;;19.51;64.68
51530;BME280;37613;51.788;21.582;2022-08-30T16:27:39;100413.80;;;19.43;64.81
51530;BME280;37613;51.788;21.582;2022-08-30T16:31:43;100413.25;;;19.39;64.97
51530;BME280;37613;51.788;21.582;2022-08-30T16:35:49;100416.95;;;19.36;65.08
51530;BME280;37613;51.788;21.582;2022-08-30T16:39:53;100417.81;;;19.32;65.21
51530;BME280;37613;51.788;21.582;2022-08-30T16:43:55;100413.74;;;19.24;65.57
51530;BME280;37613;51.788;21.582;2022-08-30T16:47:57;100416.09;;;19.20;65.76
51530;BME280;37613;51.788;21.582;2022-08-30T16:51:59;100415.36;;;19.15;65.96
51530;BME280;37613;51.788;21.582;2022-08-30T16:56:08;100418.14;;;19.11;65.98
51530;BME280;37613;51.788;21.582;2022-08-30T17:00:10;100420.10;;;19.03;66.54
51530;BME280;37613;51.788;21.582;2022-08-30T17:04:13;100420.71;;;18.96;66.33
51530;BME280;37613;51.788;21.582;2022-08-30T17:08:15;100427.63;;;18.95;66.43
51530;BME280;37613;51.788;21.582;2022-08-30T17:12:17;100427.49;;;18.91;66.34
51530;BME280;37613;51.788;21.582;2022-08-30T17:16:19;100427.58;;;18.89;66.67
51530;BME280;37613;51.788;21.582;2022-08-30T17:20:22;100434.98;;;18.85;66.60
51530;BME280;37613;51.788;21.582;2022-08-30T17:24:24;100434.39;;;18.83;66.70
51530;BME280;37613;51.788;21.582;2022-08-30T17:28:26;100432.34;;;18.80;66.86
51530;BME280;37613;51.788;21.582;2022-08-30T17:32:29;100438.11;;;18.77;66.85
51530;BME280;37613;51.788;21.582;2022-08-30T17:36:32;100438.21;;;18.74;66.92
51530;BME280;37613;51.788;21.582;2022-08-30T17:40:34;100435.30;;;18.66;67.65
51530;BME280;37613;51.788;21.582;2022-08-30T17:44:36;100438.81;;;18.54;67.32
51530;BME280;37613;51.788;21.582;2022-08-30T17:48:38;100441.65;;;18.45;67.40
51530;BME280;37613;51.788;21.582;2022-08-30T17:52:41;100445.13;;;18.38;67.60
51530;BME280;37613;51.788;21.582;2022-08-30T17:56:43;100451.17;;;18.36;68.18
51530;BME280;37613;51.788;21.582;2022-08-30T18:00:48;100453.31;;;18.31;68.06
51530;BME280;37613;51.788;21.582;2022-08-30T18:04:51;100460.89;;;18.27;68.00
51530;BME280;37613;51.788;21.582;2022-08-30T18:08:57;100459.55;;;18.21;68.02
51530;BME280;37613;51.788;21.582;2022-08-30T18:13:02;100464.90;;;18.15;68.07
51530;BME280;37613;51.788;21.582;2022-08-30T18:17:04;100469.91;;;18.12;68.34
51530;BME280;37613;51.788;21.582;2022-08-30T18:21:16;100471.41;;;18.07;68.26
51530;BME280;37613;51.788;21.582;2022-08-30T18:25:20;100474.33;;;18.03;68.24
51530;BME280;37613;51.788;21.582;2022-08-30T18:29:25;100476.05;;;18.01;68.35
51530;BME280;37613;51.788;21.582;2022-08-30T18:33:30;100468.46;;;17.94;68.50
51530;BME280;37613;51.788;21.582;2022-08-30T18:37:35;100480.86;;;17.98;68.63
51530;BME280;37613;51.788;21.582;2022-08-30T18:41:37;100487.16;;;17.95;68.75
51530;BME280;37613;51.788;21.582;2022-08-30T18:45:44;100490.05;;;17.95;68.64
51530;BME280;37613;51.788;21.582;2022-08-30T18:49:51;100491.52;;;17.94;68.77
51530;BME280;37613;51.788;21.582;2022-08-30T18:53:53;100489.91;;;17.92;68.84
51530;BME280;37613;51.788;21.582;2022-08-30T18:57:58;100489.94;;;17.90;69.13
51530;BME280;37613;51.788;21.582;2022-08-30T19:02:03;100492.48;;;17.85;69.23
51530;BME280;37613;51.788;21.582;2022-08-30T19:06:06;100488.90;;;17.84;69.28
51530;BME280;37613;51.788;21.582;2022-08-30T19:10:09;100495.34;;;17.82;69.32
51530;BME280;37613;51.788;21.582;2022-08-30T19:14:15;100492.48;;;17.78;69.26
51530;BME280;37613;51.788;21.582;2022-08-30T19:18:19;100497.30;;;17.73;69.42
51530;BME280;37613;51.788;21.582;2022-08-30T19:22:21;100494.77;;;17.72;69.43
51530;BME280;37613;51.788;21.582;2022-08-30T19:26:26;100493.33;;;17.68;69.69
51530;BME280;37613;51.788;21.582;2022-08-30T19:30:30;100496.41;;;17.67;69.61
51530;BME280;37613;51.788;21.582;2022-08-30T19:34:35;100493.31;;;17.63;69.81
51530;BME280;37613;51.788;21.582;2022-08-30T19:38:37;100492.25;;;17.61;69.84
51530;BME280;37613;51.788;21.582;2022-08-30T19:42:39;100495.55;;;17.60;69.88
51530;BME280;37613;51.788;21.582;2022-08-30T19:46:41;100494.90;;;17.56;69.83
51530;BME280;37613;51.788;21.582;2022-08-30T19:50:46;100497.16;;;17.52;70.03
51530;BME280;37613;51.788;21.582;2022-08-30T19:54:54;100497.73;;;17.51;70.12
51530;BME280;37613;51.788;21.582;2022-08-30T19:58:56;100499.30;;;17.49;70.86
51530;BME280;37613;51.788;21.582;2022-08-30T20:02:58;100492.71;;;17.41;70.58
51530;BME280;37613;51.788;21.582;2022-08-30T20:07:03;100496.23;;;17.44;71.32
51530;BME280;37613;51.788;21.582;2022-08-30T20:11:05;100495.73;;;17.42;70.89
51530;BME280;37613;51.788;21.582;2022-08-30T20:15:13;100492.09;;;17.40;71.00
51530;BME280;37613;51.788;21.582;2022-08-30T20:19:19;100491.06;;;17.40;71.08
51530;BME280;37613;51.788;21.582;2022-08-30T20:23:23;100492.98;;;17.37;70.90
51530;BME280;37613;51.788;21.582;2022-08-30T20:27:28;100493.77;;;17.33;70.95
51530;BME280;37613;51.788;21.582;2022-08-30T20:31:30;100494.58;;;17.30;71.16
51530;BME280;37613;51.788;21.582;2022-08-30T20:35:39;100496.46;;;17.27;71.10
51530;BME280;37613;51.788;21.582;2022-08-30T20:39:43;100496.02;;;17.23;71.10
51530;BME280;37613;51.788;21.582;2022-08-30T20:43:45;100499.14;;;17.19;71.25
51530;BME280;37613;51.788;21.582;2022-08-30T20:47:49;100498.42;;;17.15;71.39
51530;BME280;37613;51.788;21.582;2022-08-30T20:51:55;100499.02;;;17.10;71.67
51530;BME280;37613;51.788;21.582;2022-08-30T20:55:59;100499.77;;;17.05;71.63
51530;BME280;37613;51.788;21.582;2022-08-30T21:00:10;100493.51;;;16.99;72.01
51530;BME280;37613;51.788;21.582;2022-08-30T21:04:14;100501.19;;;17.02;73.10
51530;BME280;37613;51.788;21.582;2022-08-30T21:08:16;100499.34;;;16.98;72.56
51530;BME280;37613;51.788;21.582;2022-08-30T21:12:21;100494.04;;;16.97;72.32
51530;BME280;37613;51.788;21.582;2022-08-30T21:16:23;100495.08;;;16.97;72.37
51530;BME280;37613;51.788;21.582;2022-08-30T21:20:25;100497.48;;;16.96;72.42
51530;BME280;37613;51.788;21.582;2022-08-30T21:24:27;100498.23;;;16.94;72.64
51530;BME280;37613;51.788;21.582;2022-08-30T21:28:32;100500.30;;;16.91;73.17
51530;BME280;37613;51.788;21.582;2022-08-30T21:32:40;100497.66;;;16.88;74.21
51530;BME280;37613;51.788;21.582;2022-08-30T21:36:42;100498.48;;;16.83;74.07
51530;BME280;37613;51.788;21.582;2022-08-30T21:40:48;100500.83;;;16.82;73.91
51530;BME280;37613;51.788;21.582;2022-08-30T21:44:53;100499.70;;;16.78;74.21
51530;BME280;37613;51.788;21.582;2022-08-30T21:48:56;100498.11;;;16.74;73.93
51530;BME280;37613;51.788;21.582;2022-08-30T21:53:01;100502.92;;;16.73;73.82
51530;BME280;37613;51.788;21.582;2022-08-30T21:57:06;100489.34;;;16.65;73.80
51530;BME280;37613;51.788;21.582;2022-08-30T22:01:12;100502.37;;;16.67;73.92
51530;BME280;37613;51.788;21.582;2022-08-30T22:05:15;100500.01;;;16.66;74.00
51530;BME280;37613;51.788;21.582;2022-08-30T22:09:18;100501.30;;;16.65;74.71
51530;BME280;37613;51.788;21.582;2022-08-30T22:13:24;100502.72;;;16.62;74.47
51530;BME280;37613;51.788;21.582;2022-08-30T22:17:29;100505.59;;;16.61;74.47
51530;BME280;37613;51.788;21.582;2022-08-30T22:21:32;100506.42;;;16.60;74.65
51530;BME280;37613;51.788;21.582;2022-08-30T22:25:38;100509.11;;;16.57;74.41
51530;BME280;37613;51.788;21.582;2022-08-30T22:29:40;100506.83;;;16.51;74.54
51530;BME280;37613;51.788;21.582;2022-08-30T22:33:42;100515.91;;;16.53;75.62
51530;BME280;37613;51.788;21.582;2022-08-30T22:37:45;100511.88;;;16.50;74.88
51530;BME280;37613;51.788;21.582;2022-08-30T22:41:53;100517.42;;;16.48;75.56